Strona główna
METAR-TAF:

METAR-TAF

Lotnisko :

Port lotniczy Joensuu

Joensuu, Finlandia

Szerokość geograficzna: 62-40N, Długość geograficzna: 029-38E, wysokość: 119 m

Aktualna obserwacja pogody

Raport powstał 18 minut temu, godzina 06:20 UTC
Wiatr 4 kt od północny wschód, zmienny między północny zachód i wschód
Temperatura 10°C
Wilgotność 57%
Ciśnienie 1026 hPa
Widzialność 10 km lub więcej
Zachmurzenie całkowite na wysokości 3000 ft

METAR: EFJO 010620Z AUTO 04004KT 310V090 9999 OVC030 10/02 Q1026

czas: 09:38 (06:38 UTC)


TAF: brakujący

Obserwacja i prognoza pogody dla ponad 4000 lotnisk (raport METAR i TAF).

Dostępne stacje oznaczono żółtymi i czerwonymi punktami na mapie.

Najedź kursorem aby zobaczyć nazwę stacji.

Kliknij aby zobaczyć obserwacje i prognozy pogody.

Aby zmienić mapę: kliknij na zielony przycisk z czarnym krzyżykiem, aby powiększyć; na zielony przycisk z myślnikiem, aby pomniejszyć; na zielone strzałki, aby przejść do map sąsiednich.


METAR-TAF: